createdAt,value
2017-07-06T00:01:29.471Z,18.20
2017-07-06T00:03:57.976Z,18.20
2017-07-06T00:06:26.426Z,18.20
2017-07-06T00:08:54.890Z,18.20
2017-07-06T00:11:23.438Z,18.30
2017-07-06T00:13:51.890Z,18.20
2017-07-06T00:16:20.333Z,18.20
2017-07-06T00:18:48.784Z,18.20
2017-07-06T00:21:18.007Z,18.00
2017-07-06T00:23:46.452Z,18.00
2017-07-06T00:26:14.886Z,18.10
2017-07-06T00:28:43.324Z,18.10
2017-07-06T00:31:11.777Z,18.10
2017-07-06T00:33:40.313Z,17.90
2017-07-06T00:36:08.751Z,17.70
2017-07-06T00:38:37.224Z,17.60
2017-07-06T00:41:05.733Z,17.40
2017-07-06T00:43:34.171Z,17.30
2017-07-06T00:46:02.247Z,17.20
2017-07-06T00:48:30.757Z,17.10
2017-07-06T00:50:59.201Z,16.90
2017-07-06T00:53:27.670Z,16.80
2017-07-06T00:55:56.119Z,16.80
2017-07-06T00:58:24.560Z,16.70
2017-07-06T01:00:52.983Z,16.60
2017-07-06T01:03:21.442Z,16.60
2017-07-06T01:05:49.881Z,16.50
2017-07-06T01:08:18.307Z,16.40
2017-07-06T01:10:46.780Z,16.40
2017-07-06T01:13:14.884Z,16.40
2017-07-06T01:15:43.338Z,16.20
2017-07-06T01:18:11.901Z,16.20
2017-07-06T01:20:40.371Z,16.10
2017-07-06T01:23:08.819Z,16.10
2017-07-06T01:25:38.041Z,16.00
2017-07-06T01:28:06.471Z,16.00
2017-07-06T01:30:34.928Z,16.00
2017-07-06T01:33:03.462Z,15.90
2017-07-06T01:35:31.923Z,15.90
2017-07-06T01:38:00.384Z,15.90
2017-07-06T01:40:28.824Z,15.90
2017-07-06T01:42:57.244Z,15.90
2017-07-06T01:45:25.319Z,16.00
2017-07-06T01:47:53.784Z,16.10
2017-07-06T01:50:22.215Z,16.10
2017-07-06T01:52:50.703Z,16.10
2017-07-06T01:55:18.498Z,16.10
2017-07-06T01:57:46.276Z,16.10
2017-07-06T02:00:14.719Z,16.10
2017-07-06T02:02:43.172Z,16.20
2017-07-06T02:05:11.851Z,16.10
2017-07-06T02:07:40.347Z,16.00
2017-07-06T02:10:08.812Z,15.90
2017-07-06T02:12:37.289Z,15.80
2017-07-06T02:15:05.903Z,15.80
2017-07-06T02:17:34.398Z,15.70
2017-07-06T02:20:02.847Z,15.80
2017-07-06T02:22:31.335Z,15.80
2017-07-06T02:24:59.930Z,15.90
2017-07-06T02:27:28.369Z,15.90
2017-07-06T02:29:56.801Z,15.90
2017-07-06T02:32:25.267Z,16.00
2017-07-06T02:34:53.686Z,16.00
2017-07-06T02:37:22.880Z,16.00
2017-07-06T02:39:51.456Z,16.00
2017-07-06T02:42:19.915Z,16.00
2017-07-06T02:44:48.356Z,16.00
2017-07-06T02:47:16.804Z,16.00
2017-07-06T02:49:46.036Z,16.00
2017-07-06T02:52:14.522Z,16.00
2017-07-06T02:54:43.009Z,15.80
2017-07-06T02:57:11.478Z,15.80
2017-07-06T02:59:39.959Z,15.80
2017-07-06T03:02:08.424Z,15.90
2017-07-06T03:04:36.875Z,15.90
2017-07-06T03:07:05.307Z,15.80
2017-07-06T03:09:33.742Z,15.70
2017-07-06T03:12:01.838Z,15.80
2017-07-06T03:14:29.970Z,15.70
2017-07-06T03:16:58.536Z,15.70
2017-07-06T03:19:27.020Z,15.70
2017-07-06T03:21:55.524Z,15.70
2017-07-06T03:24:24.247Z,15.70
2017-07-06T03:26:52.687Z,15.70
2017-07-06T03:29:21.176Z,15.80
2017-07-06T03:31:49.679Z,15.70
2017-07-06T03:34:18.115Z,15.70
2017-07-06T03:36:46.194Z,15.80
2017-07-06T03:39:14.648Z,15.80
2017-07-06T03:41:43.094Z,15.80
2017-07-06T03:44:11.519Z,15.70
2017-07-06T03:46:39.948Z,15.70
2017-07-06T03:49:08.387Z,15.70
2017-07-06T03:51:36.830Z,15.70
2017-07-06T03:54:05.279Z,15.70
2017-07-06T03:56:33.702Z,15.70
2017-07-06T03:59:02.128Z,15.80
2017-07-06T04:01:30.597Z,15.80
2017-07-06T04:03:59.015Z,15.90
2017-07-06T04:06:27.439Z,16.00
2017-07-06T04:08:55.936Z,16.10
2017-07-06T04:11:24.395Z,16.20
2017-07-06T04:13:52.847Z,16.20
2017-07-06T04:16:21.489Z,16.30
2017-07-06T04:18:49.975Z,16.40
2017-07-06T04:21:18.076Z,16.50
2017-07-06T04:23:46.550Z,16.60
2017-07-06T04:26:14.989Z,16.80
2017-07-06T04:28:43.443Z,16.80
2017-07-06T04:31:11.921Z,16.90
2017-07-06T04:33:40.353Z,16.80
2017-07-06T04:36:08.811Z,16.80
2017-07-06T04:38:37.271Z,16.90
2017-07-06T04:41:05.699Z,16.90
2017-07-06T04:43:34.124Z,17.10
2017-07-06T04:46:02.644Z,17.20
2017-07-06T04:48:31.095Z,17.40
2017-07-06T04:50:59.525Z,17.60
2017-07-06T04:53:28.045Z,17.70
2017-07-06T04:55:56.780Z,17.70
2017-07-06T04:58:25.235Z,18.10
2017-07-06T05:00:53.725Z,18.70
2017-07-06T05:03:22.192Z,19.00
2017-07-06T05:05:50.621Z,19.30
2017-07-06T05:08:19.177Z,19.40
2017-07-06T05:10:47.625Z,19.50
2017-07-06T05:13:16.145Z,19.60
2017-07-06T05:15:44.584Z,19.70
2017-07-06T05:18:13.056Z,19.80
2017-07-06T05:20:41.535Z,19.80
2017-07-06T05:23:10.070Z,19.80
2017-07-06T05:25:38.523Z,20.00
2017-07-06T05:28:07.004Z,20.10
2017-07-06T05:30:35.555Z,20.20
2017-07-06T05:33:03.991Z,20.30
2017-07-06T05:35:32.456Z,20.40
2017-07-06T05:38:00.955Z,20.50
2017-07-06T05:40:28.696Z,20.70
2017-07-06T05:42:57.121Z,20.80
2017-07-06T05:45:25.611Z,21.00
2017-07-06T05:47:54.078Z,21.30
2017-07-06T05:50:22.713Z,21.60
2017-07-06T05:52:51.166Z,21.80
2017-07-06T05:55:19.680Z,22.10
2017-07-06T05:57:47.754Z,22.30
2017-07-06T06:00:16.297Z,22.60
2017-07-06T06:02:44.733Z,22.80
2017-07-06T06:05:13.191Z,23.00
2017-07-06T06:07:41.721Z,23.20
2017-07-06T06:10:10.150Z,23.30
2017-07-06T06:12:38.612Z,23.40
2017-07-06T06:15:07.103Z,23.50
2017-07-06T06:17:35.548Z,23.70
2017-07-06T06:20:03.981Z,24.00
2017-07-06T06:22:32.438Z,24.40
2017-07-06T06:25:00.891Z,25.10
2017-07-06T06:27:29.331Z,25.50
2017-07-06T06:29:57.784Z,26.10
2017-07-06T06:32:27.023Z,27.40
2017-07-06T06:34:55.552Z,27.30
2017-07-06T06:37:24.046Z,27.60
2017-07-06T06:39:52.510Z,28.10
2017-07-06T06:42:20.984Z,28.00
2017-07-06T06:44:49.457Z,28.60
2017-07-06T06:47:17.917Z,29.00
2017-07-06T06:49:46.398Z,29.80
2017-07-06T06:52:14.915Z,30.30
2017-07-06T06:54:43.346Z,31.10
2017-07-06T06:57:11.779Z,32.10
2017-07-06T06:59:40.283Z,31.80
2017-07-06T07:02:08.820Z,31.70
2017-07-06T07:04:37.285Z,32.60
2017-07-06T07:07:10.957Z,33.10
2017-07-06T07:09:39.487Z,33.70
2017-07-06T07:12:07.955Z,34.10
2017-07-06T07:14:36.435Z,33.70
2017-07-06T07:17:04.545Z,33.70
2017-07-06T07:19:32.982Z,34.10
2017-07-06T07:22:01.459Z,34.40
2017-07-06T07:24:30.690Z,35.10
2017-07-06T07:26:58.967Z,35.10
2017-07-06T07:29:27.695Z,35.40
2017-07-06T07:31:56.146Z,35.00
2017-07-06T07:34:24.579Z,35.00
2017-07-06T07:36:53.025Z,34.70
2017-07-06T07:39:21.500Z,34.60
2017-07-06T07:41:49.926Z,34.90
2017-07-06T07:44:18.367Z,34.60
2017-07-06T07:46:46.828Z,34.30
2017-07-06T07:49:15.248Z,34.20
2017-07-06T07:51:43.743Z,33.60
2017-07-06T07:54:12.197Z,33.30
2017-07-06T07:56:40.676Z,33.20
2017-07-06T07:59:09.222Z,33.40
2017-07-06T08:01:37.673Z,33.70
2017-07-06T08:04:06.130Z,33.40
2017-07-06T08:06:34.726Z,33.20
2017-07-06T08:09:03.203Z,33.90
2017-07-06T08:11:31.639Z,34.40
2017-07-06T08:14:00.739Z,33.50
2017-07-06T08:16:29.415Z,33.90
2017-07-06T08:18:57.883Z,34.30
2017-07-06T08:21:27.125Z,34.20
2017-07-06T08:23:55.606Z,34.20
2017-07-06T08:26:24.082Z,34.80
2017-07-06T08:28:55.444Z,34.50
2017-07-06T08:31:23.911Z,34.30
2017-07-06T08:33:52.352Z,33.50
2017-07-06T08:36:20.835Z,33.40
2017-07-06T08:38:49.324Z,33.60
2017-07-06T08:41:17.774Z,34.20
2017-07-06T08:43:46.332Z,34.60
2017-07-06T08:46:15.068Z,34.80
2017-07-06T08:48:43.544Z,34.90
2017-07-06T08:51:12.036Z,35.80
2017-07-06T08:53:40.535Z,35.50
2017-07-06T08:56:08.976Z,36.00
2017-07-06T08:58:37.473Z,36.00
2017-07-06T09:01:05.938Z,36.60
2017-07-06T09:03:34.404Z,36.50
2017-07-06T09:06:02.879Z,36.70
2017-07-06T09:08:31.354Z,36.40
2017-07-06T09:10:59.815Z,36.40
2017-07-06T09:13:28.355Z,36.20
2017-07-06T09:15:56.654Z,36.10
2017-07-06T09:18:25.149Z,35.50
2017-07-06T09:20:53.664Z,35.80
2017-07-06T09:23:22.374Z,36.40
2017-07-06T09:25:50.829Z,36.40
2017-07-06T09:28:19.364Z,36.10
2017-07-06T09:30:48.534Z,36.50
2017-07-06T09:33:16.963Z,36.90
2017-07-06T09:35:45.543Z,36.50
2017-07-06T09:38:14.267Z,36.90
2017-07-06T09:40:42.737Z,36.70
2017-07-06T09:43:12.100Z,37.20
2017-07-06T09:45:40.541Z,36.90
2017-07-06T09:48:09.027Z,36.40
2017-07-06T09:50:37.514Z,36.50
2017-07-06T09:53:06.026Z,36.20
2017-07-06T09:55:52.038Z,36.80
2017-07-06T09:58:20.359Z,36.70
2017-07-06T10:00:48.895Z,37.00
2017-07-06T10:03:17.425Z,36.30
2017-07-06T10:05:45.863Z,36.30
2017-07-06T10:08:14.388Z,36.60
2017-07-06T10:10:42.909Z,36.70
2017-07-06T10:13:11.396Z,36.50
2017-07-06T10:15:39.900Z,36.30
2017-07-06T10:18:08.096Z,36.70
2017-07-06T10:20:36.576Z,36.30
2017-07-06T10:23:05.037Z,35.90
2017-07-06T10:25:33.548Z,36.30
2017-07-06T10:28:02.068Z,36.50
2017-07-06T10:30:30.602Z,36.80
2017-07-06T10:32:59.120Z,37.50
2017-07-06T10:35:27.605Z,37.80
2017-07-06T10:37:56.093Z,36.90
2017-07-06T10:40:24.569Z,37.10
2017-07-06T10:42:53.100Z,36.80
2017-07-06T10:45:21.565Z,36.50
2017-07-06T10:47:50.273Z,36.90
2017-07-06T10:50:18.126Z,36.30
2017-07-06T10:52:46.592Z,36.90
2017-07-06T10:55:15.085Z,36.40
2017-07-06T10:57:43.566Z,36.10
2017-07-06T11:00:12.091Z,35.50
2017-07-06T11:02:40.949Z,35.60
2017-07-06T11:05:09.407Z,35.80
2017-07-06T11:07:38.038Z,36.50
2017-07-06T11:10:06.519Z,36.90
2017-07-06T11:12:34.978Z,35.70
2017-07-06T11:15:03.480Z,35.40
2017-07-06T11:17:32.084Z,35.10
2017-07-06T11:20:00.542Z,35.30
2017-07-06T11:22:29.035Z,35.60
2017-07-06T11:24:57.514Z,35.80
2017-07-06T11:27:26.025Z,35.80
2017-07-06T11:29:54.499Z,36.20
2017-07-06T11:32:23.793Z,35.50
2017-07-06T11:34:52.297Z,35.40
2017-07-06T11:37:20.768Z,34.80
2017-07-06T11:39:49.342Z,34.70
2017-07-06T11:42:17.812Z,34.50
2017-07-06T11:44:46.272Z,35.50
2017-07-06T11:47:14.791Z,34.90
2017-07-06T11:49:43.283Z,34.90
2017-07-06T11:52:11.791Z,35.00
2017-07-06T11:54:40.325Z,34.40
2017-07-06T11:57:08.795Z,34.10
2017-07-06T11:59:37.249Z,33.90
2017-07-06T12:02:05.761Z,33.40
2017-07-06T12:04:34.251Z,33.40
2017-07-06T12:07:03.761Z,34.30
2017-07-06T12:09:32.296Z,34.70
2017-07-06T12:12:00.818Z,35.00
2017-07-06T12:14:29.314Z,35.00
2017-07-06T12:16:57.833Z,34.50
2017-07-06T12:19:26.345Z,33.80
2017-07-06T12:21:54.857Z,33.80
2017-07-06T12:24:23.332Z,34.00
2017-07-06T12:26:51.891Z,34.20
2017-07-06T12:29:20.387Z,34.30
2017-07-06T12:31:48.902Z,34.50
2017-07-06T12:34:17.366Z,34.00
2017-07-06T12:36:45.813Z,32.90
2017-07-06T12:39:14.306Z,33.40
2017-07-06T12:41:42.836Z,34.00
2017-07-06T12:44:12.316Z,34.80
2017-07-06T12:46:40.826Z,34.60
2017-07-06T12:49:09.328Z,34.00
2017-07-06T12:51:37.802Z,33.70
2017-07-06T12:54:06.320Z,33.60
2017-07-06T12:56:34.765Z,33.80
2017-07-06T12:59:03.252Z,34.20
2017-07-06T13:01:31.764Z,34.20
2017-07-06T13:03:59.900Z,33.20
2017-07-06T13:06:28.360Z,32.10
2017-07-06T13:08:56.925Z,31.30
2017-07-06T13:11:25.417Z,31.00
2017-07-06T13:13:54.195Z,30.90
2017-07-06T13:16:22.771Z,31.60
2017-07-06T13:18:51.275Z,31.60
2017-07-06T13:21:19.116Z,31.60
2017-07-06T13:23:47.639Z,31.20
2017-07-06T13:26:16.135Z,30.80
2017-07-06T13:28:44.599Z,30.20
2017-07-06T13:31:13.127Z,29.90
2017-07-06T13:33:41.595Z,29.40
2017-07-06T13:36:10.143Z,29.10
2017-07-06T13:38:38.676Z,28.50
2017-07-06T13:41:07.141Z,28.30
2017-07-06T13:43:35.612Z,28.00
2017-07-06T13:46:04.348Z,27.60
2017-07-06T13:48:32.443Z,27.00
2017-07-06T13:51:00.722Z,25.80
2017-07-06T13:53:29.306Z,23.90
2017-07-06T13:55:57.753Z,22.90
2017-07-06T13:58:26.166Z,22.30
2017-07-06T14:00:54.615Z,22.00
2017-07-06T14:03:23.798Z,21.80
2017-07-06T14:05:52.264Z,21.90
2017-07-06T14:08:20.731Z,22.10
2017-07-06T14:10:48.463Z,22.00
2017-07-06T14:13:16.897Z,22.10
2017-07-06T14:15:45.332Z,22.40
2017-07-06T14:18:13.856Z,22.60
2017-07-06T14:20:42.320Z,23.30
2017-07-06T14:23:10.802Z,24.50
2017-07-06T14:25:39.224Z,25.20
2017-07-06T14:28:07.651Z,25.90
2017-07-06T14:30:36.105Z,26.40
2017-07-06T14:33:05.280Z,26.60
2017-07-06T14:35:33.688Z,26.60
2017-07-06T14:38:02.139Z,26.40
2017-07-06T14:40:30.551Z,25.80
2017-07-06T14:42:58.969Z,25.30
2017-07-06T14:45:27.407Z,25.00
2017-07-06T14:47:55.846Z,24.80
2017-07-06T14:50:24.253Z,24.90
2017-07-06T14:52:52.690Z,25.10
2017-07-06T14:55:21.110Z,25.40
2017-07-06T14:57:49.523Z,25.50
2017-07-06T15:00:18.077Z,26.10
2017-07-06T15:02:46.528Z,26.50
2017-07-06T15:05:14.944Z,26.90
2017-07-06T15:07:43.391Z,26.90
2017-07-06T15:10:11.856Z,26.70
2017-07-06T15:12:40.313Z,26.50
2017-07-06T15:15:08.803Z,26.40
2017-07-06T15:17:37.236Z,26.60
2017-07-06T15:20:05.654Z,27.00
2017-07-06T15:22:34.144Z,27.70
2017-07-06T15:25:02.563Z,28.40
2017-07-06T15:27:30.978Z,28.20
2017-07-06T15:29:59.414Z,28.20
2017-07-06T15:32:27.873Z,28.50
2017-07-06T15:34:56.301Z,28.80
2017-07-06T15:37:24.775Z,28.90
2017-07-06T15:39:52.846Z,28.30
2017-07-06T15:42:20.971Z,27.50
2017-07-06T15:44:49.480Z,26.70
2017-07-06T15:47:17.943Z,26.40
2017-07-06T15:49:46.410Z,25.90
2017-07-06T15:52:14.976Z,25.10
2017-07-06T15:54:43.431Z,24.60
2017-07-06T15:57:11.880Z,24.40
2017-07-06T15:59:40.333Z,24.40
2017-07-06T16:02:08.751Z,24.20
2017-07-06T16:04:37.191Z,24.20
2017-07-06T16:07:05.647Z,24.10
2017-07-06T16:09:34.092Z,24.10
2017-07-06T16:12:02.530Z,24.00
2017-07-06T16:14:30.976Z,24.10
2017-07-06T16:16:59.427Z,24.00
2017-07-06T16:19:27.851Z,24.00
2017-07-06T16:21:56.342Z,24.00
2017-07-06T16:24:24.756Z,24.00
2017-07-06T16:26:53.167Z,24.10
2017-07-06T16:29:21.629Z,24.20
2017-07-06T16:31:50.043Z,24.20
2017-07-06T16:34:18.464Z,24.50
2017-07-06T16:36:46.925Z,24.40
2017-07-06T16:39:15.382Z,24.30
2017-07-06T16:41:43.843Z,24.60
2017-07-06T16:44:12.302Z,25.30
2017-07-06T16:46:42.422Z,25.20
2017-07-06T16:49:10.874Z,25.20
2017-07-06T16:51:39.325Z,25.30
2017-07-06T16:54:08.542Z,25.00
2017-07-06T16:56:37.046Z,24.90
2017-07-06T16:59:05.479Z,24.70
2017-07-06T17:01:33.889Z,24.70
2017-07-06T17:04:02.334Z,24.40
2017-07-06T17:06:30.817Z,24.30
2017-07-06T17:08:59.337Z,24.30
2017-07-06T17:11:27.758Z,24.40
2017-07-06T17:13:56.219Z,24.20
2017-07-06T17:16:24.685Z,23.80
2017-07-06T17:18:53.102Z,23.60
2017-07-06T17:21:21.570Z,23.40
2017-07-06T17:23:49.986Z,23.40
2017-07-06T17:26:18.406Z,23.40
2017-07-06T17:28:46.829Z,23.20
2017-07-06T17:31:15.235Z,23.10
2017-07-06T17:33:43.639Z,23.10
2017-07-06T17:36:12.087Z,23.00
2017-07-06T17:38:40.492Z,23.00
2017-07-06T17:41:08.894Z,22.90
2017-07-06T17:43:37.366Z,22.80
2017-07-06T17:46:06.025Z,22.80
2017-07-06T17:48:34.480Z,22.70
2017-07-06T17:51:03.007Z,22.70
2017-07-06T17:53:31.496Z,22.50
2017-07-06T17:55:59.944Z,22.40
2017-07-06T17:58:29.196Z,21.90
2017-07-06T18:00:59.003Z,21.90
2017-07-06T18:03:27.471Z,21.90
2017-07-06T18:05:56.146Z,21.60
2017-07-06T18:08:24.592Z,21.50
2017-07-06T18:10:53.039Z,21.50
2017-07-06T18:13:21.640Z,21.40
2017-07-06T18:15:50.081Z,21.30
2017-07-06T18:18:18.499Z,21.30
2017-07-06T18:20:47.205Z,21.20
2017-07-06T18:23:15.676Z,21.20
2017-07-06T18:25:44.861Z,21.30
2017-07-06T18:28:13.335Z,21.30
2017-07-06T18:30:41.810Z,21.40
2017-07-06T18:33:10.271Z,21.50
2017-07-06T18:35:39.285Z,21.60
2017-07-06T18:38:09.691Z,21.50
2017-07-06T18:40:50.817Z,21.30
2017-07-06T18:43:19.271Z,21.20
2017-07-06T18:45:47.740Z,21.10
2017-07-06T18:48:16.356Z,21.00
2017-07-06T18:50:44.861Z,20.80
2017-07-06T18:53:14.410Z,20.80
2017-07-06T18:55:43.195Z,20.70
2017-07-06T18:58:11.919Z,20.60
2017-07-06T19:00:40.444Z,20.50
2017-07-06T19:03:08.985Z,20.50
2017-07-06T19:05:37.957Z,20.40
2017-07-06T19:08:06.463Z,20.30
2017-07-06T19:10:35.075Z,20.30
2017-07-06T19:13:03.568Z,20.40
2017-07-06T19:15:32.764Z,20.40
2017-07-06T19:18:01.381Z,20.40
2017-07-06T19:20:29.848Z,20.50
2017-07-06T19:23:00.093Z,20.40
2017-07-06T19:25:31.734Z,20.40
2017-07-06T19:28:01.613Z,20.40
2017-07-06T19:30:37.919Z,20.30
2017-07-06T19:33:06.431Z,20.30
2017-07-06T19:35:40.043Z,20.30
2017-07-06T19:38:09.643Z,20.30
2017-07-06T19:43:31.543Z,20.30
2017-07-06T19:46:00.511Z,20.30
2017-07-06T19:48:29.049Z,20.30
2017-07-06T19:50:59.547Z,20.30
2017-07-06T19:53:28.016Z,20.20
2017-07-06T19:55:56.517Z,20.20
2017-07-06T19:58:25.077Z,20.10
2017-07-06T20:00:54.674Z,20.00
2017-07-06T20:03:23.130Z,20.00
2017-07-06T20:05:51.630Z,19.90
2017-07-06T20:08:20.173Z,19.90
2017-07-06T20:10:48.769Z,19.70
2017-07-06T20:13:17.381Z,19.50
2017-07-06T20:15:45.914Z,19.40
2017-07-06T20:18:14.431Z,19.30
2017-07-06T20:20:42.916Z,19.20
2017-07-06T20:23:11.353Z,19.20
2017-07-06T20:25:39.932Z,19.00
2017-07-06T20:28:08.753Z,19.10
2017-07-06T20:30:38.500Z,18.90
2017-07-06T20:33:07.872Z,18.80
2017-07-06T20:35:38.822Z,18.60
2017-07-06T20:38:07.376Z,18.50
2017-07-06T20:40:36.140Z,18.50
2017-07-06T20:43:04.882Z,18.30
2017-07-06T20:45:33.394Z,18.30
2017-07-06T20:48:01.903Z,18.30
2017-07-06T20:50:30.636Z,18.30
2017-07-06T20:52:59.184Z,18.30
2017-07-06T20:55:27.750Z,18.30
2017-07-06T20:57:57.090Z,18.10
2017-07-06T21:00:25.775Z,18.10
2017-07-06T21:02:54.278Z,18.10
2017-07-06T21:05:22.911Z,18.00
2017-07-06T21:07:51.391Z,17.90
2017-07-06T21:10:19.895Z,17.80
2017-07-06T21:12:48.461Z,17.80
2017-07-06T21:15:17.231Z,17.70
2017-07-06T21:17:45.818Z,17.60
2017-07-06T21:20:14.341Z,17.60
2017-07-06T21:22:42.860Z,17.60
2017-07-06T21:25:11.383Z,17.50
2017-07-06T21:27:39.882Z,17.50
2017-07-06T21:30:08.368Z,17.50
2017-07-06T21:32:36.940Z,17.50
2017-07-06T21:35:05.500Z,17.50
2017-07-06T21:37:33.968Z,17.50
2017-07-06T21:40:02.498Z,17.50
2017-07-06T21:42:31.031Z,17.40
2017-07-06T21:44:59.994Z,17.40
2017-07-06T21:47:28.507Z,17.40
2017-07-06T21:49:58.120Z,17.50
2017-07-06T21:52:26.608Z,17.50
2017-07-06T21:54:55.733Z,17.60
2017-07-06T21:57:24.327Z,17.60
2017-07-06T21:59:52.835Z,17.60
2017-07-06T22:02:21.291Z,17.50
2017-07-06T22:04:49.844Z,17.50
2017-07-06T22:07:18.313Z,17.40
2017-07-06T22:09:46.854Z,17.40
2017-07-06T22:12:15.369Z,17.20
2017-07-06T22:14:43.872Z,17.10
2017-07-06T22:17:12.351Z,17.10
2017-07-06T22:19:40.944Z,17.10
2017-07-06T22:22:09.398Z,17.20
2017-07-06T22:24:37.887Z,17.00
2017-07-06T22:27:06.339Z,17.00
2017-07-06T22:29:34.803Z,16.90
2017-07-06T22:32:03.270Z,16.90
2017-07-06T22:34:31.787Z,17.00
2017-07-06T22:37:00.256Z,17.00
2017-07-06T22:39:28.739Z,16.90
2017-07-06T22:41:57.252Z,16.90
2017-07-06T22:44:25.747Z,17.00
2017-07-06T22:46:54.239Z,16.90
2017-07-06T22:49:22.703Z,16.90
2017-07-06T22:51:51.207Z,16.90
2017-07-06T22:54:19.694Z,16.80
2017-07-06T22:56:48.222Z,16.90
2017-07-06T22:59:16.696Z,16.90
2017-07-06T23:01:45.160Z,16.90
2017-07-06T23:04:13.766Z,17.00
2017-07-06T23:06:42.299Z,17.10
2017-07-06T23:09:10.778Z,17.10
2017-07-06T23:11:39.291Z,17.10
2017-07-06T23:14:07.811Z,17.10
2017-07-06T23:16:36.288Z,17.10
2017-07-06T23:19:04.768Z,17.10
2017-07-06T23:21:33.240Z,17.00
2017-07-06T23:24:01.783Z,17.00
2017-07-06T23:26:30.241Z,17.00
2017-07-06T23:28:58.730Z,17.00
2017-07-06T23:31:27.171Z,17.10
2017-07-06T23:33:55.655Z,17.10
2017-07-06T23:36:24.147Z,17.10
2017-07-06T23:38:52.604Z,17.20
2017-07-06T23:41:21.081Z,17.10
2017-07-06T23:43:49.542Z,17.00
2017-07-06T23:46:17.974Z,17.00
2017-07-06T23:48:46.439Z,16.90
2017-07-06T23:51:14.897Z,16.90
2017-07-06T23:53:43.377Z,16.80
2017-07-06T23:56:11.884Z,16.90
2017-07-06T23:58:40.354Z,17.00
